createdAt,value
2022-08-24T00:01:28.169Z,5.60
2022-08-24T00:03:59.855Z,5.32
2022-08-24T00:06:28.683Z,6.57
2022-08-24T00:08:58.586Z,5.00
2022-08-24T00:11:27.045Z,4.78
2022-08-24T00:13:54.470Z,5.13
2022-08-24T00:16:22.280Z,5.10
2022-08-24T00:18:49.505Z,5.15
2022-08-24T00:21:17.531Z,5.22
2022-08-24T00:23:45.329Z,5.47
2022-08-24T00:26:12.350Z,5.38
2022-08-24T00:28:39.342Z,5.05
2022-08-24T00:31:08.081Z,5.13
2022-08-24T00:33:35.803Z,5.05
2022-08-24T00:36:04.879Z,5.40
2022-08-24T00:38:35.573Z,6.10
2022-08-24T00:41:04.623Z,5.57
2022-08-24T00:43:33.068Z,5.93
2022-08-24T00:46:27.809Z,5.53
2022-08-24T00:49:04.584Z,5.53
2022-08-24T00:51:37.967Z,6.03
2022-08-24T00:54:13.208Z,6.25
2022-08-24T00:56:52.518Z,5.50
2022-08-24T00:59:27.471Z,5.22
2022-08-24T01:01:56.069Z,5.78
2022-08-24T01:04:49.167Z,6.00
2022-08-24T01:07:17.146Z,5.97
2022-08-24T01:09:44.073Z,5.22
2022-08-24T01:12:11.246Z,6.45
2022-08-24T01:14:38.854Z,6.03
2022-08-24T01:17:25.345Z,5.18
2022-08-24T01:19:55.910Z,5.80
2022-08-24T01:22:37.866Z,5.68
2022-08-24T01:25:06.764Z,5.97
2022-08-24T01:27:36.449Z,5.57
2022-08-24T01:30:08.993Z,5.30
2022-08-24T01:32:38.624Z,6.13
2022-08-24T01:35:06.961Z,5.70
2022-08-24T01:37:35.652Z,5.63
2022-08-24T01:40:07.288Z,5.80
2022-08-24T01:42:35.068Z,7.70
2022-08-24T01:45:06.480Z,6.25
2022-08-24T01:47:34.786Z,6.07
2022-08-24T01:50:22.105Z,5.78
2022-08-24T01:53:06.783Z,5.75
2022-08-24T01:55:35.269Z,5.82
2022-08-24T01:58:03.936Z,5.95
2022-08-24T02:00:31.534Z,6.28
2022-08-24T02:02:58.727Z,6.53
2022-08-24T02:05:26.497Z,6.22
2022-08-24T02:07:53.545Z,5.95
2022-08-24T02:10:22.114Z,6.10
2022-08-24T02:12:58.124Z,7.10
2022-08-24T02:15:33.327Z,6.03
2022-08-24T02:18:03.478Z,6.15
2022-08-24T02:20:30.821Z,6.43
2022-08-24T02:22:58.058Z,5.78
2022-08-24T02:25:27.592Z,5.63
2022-08-24T02:27:54.627Z,5.68
2022-08-24T02:30:21.723Z,7.30
2022-08-24T02:32:48.700Z,6.43
2022-08-24T02:35:16.232Z,5.55
2022-08-24T02:37:43.945Z,5.65
2022-08-24T02:40:14.138Z,5.90
2022-08-24T02:42:41.994Z,6.25
2022-08-24T02:45:10.491Z,5.63
2022-08-24T02:47:39.466Z,5.90
2022-08-24T02:50:12.150Z,5.68
2022-08-24T02:52:40.314Z,5.57
2022-08-24T02:55:12.075Z,5.43
2022-08-24T02:57:39.983Z,5.78
2022-08-24T03:00:13.243Z,5.65
2022-08-24T03:02:51.643Z,6.05
2022-08-24T03:05:19.631Z,6.07
2022-08-24T03:07:46.763Z,6.40
2022-08-24T03:10:14.151Z,5.90
2022-08-24T03:12:41.441Z,6.13
2022-08-24T03:15:11.500Z,5.45
2022-08-24T03:17:41.049Z,6.32
2022-08-24T03:20:15.079Z,6.18
2022-08-24T03:22:42.987Z,6.28
2022-08-24T03:25:11.452Z,6.50
2022-08-24T03:27:38.858Z,6.50
2022-08-24T03:30:08.607Z,5.60
2022-08-24T03:32:35.582Z,6.05
2022-08-24T03:35:04.448Z,7.43
2022-08-24T03:37:32.897Z,7.80
2022-08-24T03:40:00.475Z,8.35
2022-08-24T03:42:27.591Z,8.45
2022-08-24T03:44:55.037Z,8.63
2022-08-24T03:47:22.845Z,8.35
2022-08-24T03:49:50.357Z,8.25
2022-08-24T03:52:17.477Z,7.60
2022-08-24T03:54:45.416Z,8.18
2022-08-24T03:57:13.852Z,8.32
2022-08-24T03:59:46.130Z,7.55
2022-08-24T04:02:14.692Z,7.38
2022-08-24T04:04:41.959Z,6.50
2022-08-24T04:07:11.274Z,6.80
2022-08-24T04:09:38.422Z,7.15
2022-08-24T04:12:05.607Z,7.25
2022-08-24T04:14:33.183Z,6.63
2022-08-24T04:17:05.238Z,6.47
2022-08-24T04:19:37.256Z,8.20
2022-08-24T04:22:04.409Z,9.00
2022-08-24T04:24:32.048Z,8.10
2022-08-24T04:26:59.200Z,9.50
2022-08-24T04:29:27.451Z,9.02
2022-08-24T04:31:55.337Z,8.35
2022-08-24T04:34:23.277Z,9.10
2022-08-24T04:36:51.543Z,8.52
2022-08-24T04:39:18.705Z,8.00
2022-08-24T04:42:03.208Z,7.88
2022-08-24T04:44:34.528Z,7.78
2022-08-24T04:47:01.773Z,8.75
2022-08-24T04:49:30.605Z,8.20
2022-08-24T04:51:58.424Z,7.45
2022-08-24T04:54:25.832Z,7.30
2022-08-24T04:57:05.446Z,7.97
2022-08-24T04:59:33.415Z,7.35
2022-08-24T05:02:00.424Z,6.82
2022-08-24T05:04:27.445Z,7.50
2022-08-24T05:06:55.208Z,7.20
2022-08-24T05:09:22.232Z,7.88
2022-08-24T05:11:50.188Z,7.57
2022-08-24T05:14:24.568Z,7.05
2022-08-24T05:16:55.256Z,7.72
2022-08-24T05:19:23.849Z,7.38
2022-08-24T05:21:51.193Z,7.18
2022-08-24T05:24:19.647Z,6.85
2022-08-24T05:26:47.261Z,7.88
2022-08-24T05:29:15.196Z,8.50
2022-08-24T05:31:48.419Z,8.00
2022-08-24T05:34:16.509Z,7.75
2022-08-24T05:36:44.458Z,8.07
2022-08-24T05:39:38.536Z,6.75
2022-08-24T05:42:08.726Z,6.95
2022-08-24T05:44:42.216Z,7.82
2022-08-24T05:47:10.323Z,8.52
2022-08-24T05:49:41.321Z,7.63
2022-08-24T05:52:09.200Z,7.97
2022-08-24T05:54:36.689Z,8.27
2022-08-24T05:57:05.325Z,7.68
2022-08-24T05:59:58.562Z,7.45
2022-08-24T06:02:26.435Z,7.43
2022-08-24T06:04:53.737Z,6.90
2022-08-24T06:07:20.768Z,7.15
2022-08-24T06:09:54.236Z,6.50
2022-08-24T06:12:21.226Z,7.95
2022-08-24T06:14:48.605Z,7.95
2022-08-24T06:17:20.116Z,7.63
2022-08-24T06:19:47.376Z,7.50
2022-08-24T06:22:14.342Z,7.93
2022-08-24T06:25:00.122Z,8.00
2022-08-24T06:27:28.349Z,7.63
2022-08-24T06:30:10.006Z,8.05
2022-08-24T06:32:44.183Z,8.43
2022-08-24T06:35:21.398Z,9.07
2022-08-24T06:37:48.674Z,8.73
2022-08-24T06:40:15.978Z,8.23
2022-08-24T06:42:44.020Z,8.13
2022-08-24T06:45:22.904Z,7.70
2022-08-24T06:47:52.129Z,8.20
2022-08-24T06:50:22.128Z,7.32
2022-08-24T06:52:51.793Z,7.28
2022-08-24T06:55:18.899Z,8.15
2022-08-24T06:57:50.342Z,7.57
2022-08-24T07:00:20.294Z,8.45
2022-08-24T07:02:47.914Z,6.97
2022-08-24T07:05:15.231Z,7.28
2022-08-24T07:08:01.973Z,6.63
2022-08-24T07:10:31.346Z,6.90
2022-08-24T07:12:58.791Z,7.00
2022-08-24T07:15:26.486Z,7.07
2022-08-24T07:18:09.944Z,7.05
2022-08-24T07:20:39.783Z,6.05
2022-08-24T07:23:14.691Z,6.00
2022-08-24T07:25:47.577Z,5.45
2022-08-24T07:28:17.612Z,6.45
2022-08-24T07:30:54.691Z,6.93
2022-08-24T07:33:22.544Z,6.50
2022-08-24T07:35:50.314Z,6.25
2022-08-24T07:38:22.985Z,5.85
2022-08-24T07:41:14.279Z,6.03
2022-08-24T07:43:38.159Z,5.82
2022-08-24T07:46:09.954Z,7.40
2022-08-24T07:48:37.752Z,5.93
2022-08-24T07:51:10.404Z,6.25
2022-08-24T07:53:53.028Z,5.55
2022-08-24T07:56:22.953Z,5.82
2022-08-24T07:58:50.285Z,5.35
2022-08-24T08:01:22.467Z,5.53
2022-08-24T08:03:50.477Z,6.00
2022-08-24T08:06:19.308Z,6.18
2022-08-24T08:08:49.142Z,6.38
2022-08-24T08:11:16.646Z,5.82
2022-08-24T08:16:11.394Z,6.60
2022-08-24T08:18:38.478Z,6.38
2022-08-24T08:21:32.493Z,6.20
2022-08-24T08:24:20.651Z,6.63
2022-08-24T08:26:53.496Z,5.68
2022-08-24T08:29:28.799Z,6.40
2022-08-24T08:31:57.410Z,6.30
2022-08-24T08:34:24.785Z,6.50
2022-08-24T08:36:51.875Z,5.80
2022-08-24T08:39:21.575Z,6.38
2022-08-24T08:42:28.336Z,6.22
2022-08-24T08:45:09.752Z,6.10
2022-08-24T08:47:58.486Z,5.85
2022-08-24T08:50:49.239Z,6.03
2022-08-24T08:53:45.379Z,5.88
2022-08-24T08:56:54.024Z,6.70
2022-08-24T09:00:09.174Z,7.25
2022-08-24T09:03:08.822Z,7.05
2022-08-24T09:06:31.746Z,7.03
2022-08-24T09:09:24.235Z,7.43
2022-08-24T09:12:00.063Z,7.40
2022-08-24T09:15:11.655Z,7.45
2022-08-24T09:18:27.606Z,6.32
2022-08-24T09:21:54.240Z,6.85
2022-08-24T09:24:40.005Z,6.63
2022-08-24T09:27:36.412Z,6.03
2022-08-24T09:30:18.860Z,6.10
2022-08-24T09:33:10.552Z,6.50
2022-08-24T09:36:09.561Z,6.75
2022-08-24T09:39:24.785Z,5.93
2022-08-24T09:42:36.350Z,6.30
2022-08-24T09:45:57.067Z,6.25
2022-08-24T09:49:14.036Z,6.18
2022-08-24T09:52:02.204Z,6.00
2022-08-24T09:54:43.741Z,6.07
2022-08-24T09:57:59.396Z,6.10
2022-08-24T10:00:47.877Z,6.05
2022-08-24T10:04:05.962Z,6.57
2022-08-24T10:06:38.478Z,6.45
2022-08-24T10:09:56.232Z,6.32
2022-08-24T10:12:50.814Z,6.13
2022-08-24T10:15:34.256Z,6.38
2022-08-24T10:18:36.150Z,6.03
2022-08-24T10:21:47.527Z,6.63
2022-08-24T10:24:29.801Z,6.57
2022-08-24T10:27:19.390Z,5.93
2022-08-24T10:30:16.455Z,6.40
2022-08-24T10:33:11.593Z,6.38
2022-08-24T10:35:48.767Z,7.10
2022-08-24T10:39:05.319Z,6.32
2022-08-24T10:42:32.665Z,7.43
2022-08-24T10:45:40.527Z,6.45
2022-08-24T10:48:33.036Z,6.35
2022-08-24T10:51:37.158Z,6.28
2022-08-24T10:54:04.958Z,6.90
2022-08-24T10:56:55.414Z,6.60
2022-08-24T10:59:43.887Z,6.35
2022-08-24T11:02:38.315Z,6.00
2022-08-24T11:05:10.489Z,6.95
2022-08-24T11:07:59.806Z,6.63
2022-08-24T11:10:37.279Z,6.60
2022-08-24T11:13:25.943Z,6.68
2022-08-24T11:16:01.463Z,6.53
2022-08-24T11:18:54.332Z,6.60
2022-08-24T11:21:50.340Z,6.38
2022-08-24T11:24:24.357Z,6.88
2022-08-24T11:27:04.340Z,6.70
2022-08-24T11:29:51.428Z,7.00
2022-08-24T11:32:38.832Z,6.45
2022-08-24T11:35:39.335Z,6.00
2022-08-24T11:38:09.669Z,6.05
2022-08-24T11:40:42.789Z,6.70
2022-08-24T11:43:35.263Z,7.15
2022-08-24T11:46:46.817Z,6.28
2022-08-24T11:49:28.737Z,6.60
2022-08-24T11:52:15.770Z,6.45
2022-08-24T11:55:06.277Z,6.63
2022-08-24T11:58:02.425Z,7.00
2022-08-24T12:00:52.113Z,7.38
2022-08-24T12:03:43.818Z,6.65
2022-08-24T12:06:35.202Z,6.38
2022-08-24T12:09:29.730Z,7.60
2022-08-24T12:12:33.718Z,7.47
2022-08-24T12:15:25.212Z,7.40
2022-08-24T12:18:05.214Z,7.20
2022-08-24T12:20:39.377Z,7.20
2022-08-24T12:23:29.044Z,7.45
2022-08-24T12:26:04.442Z,7.30
2022-08-24T12:28:49.212Z,6.97
2022-08-24T12:31:24.436Z,6.88
2022-08-24T12:33:54.884Z,8.48
2022-08-24T12:36:39.957Z,7.00
2022-08-24T12:39:16.283Z,6.85
2022-08-24T12:42:26.779Z,7.55
2022-08-24T12:44:59.738Z,6.90
2022-08-24T12:47:43.119Z,8.23
2022-08-24T12:50:25.718Z,7.18
2022-08-24T12:53:42.696Z,6.63
2022-08-24T12:56:43.116Z,7.03
2022-08-24T12:59:27.356Z,7.03
2022-08-24T13:02:09.445Z,7.28
2022-08-24T13:04:52.782Z,6.95
2022-08-24T13:07:19.608Z,6.57
2022-08-24T13:10:00.476Z,6.50
2022-08-24T13:12:42.818Z,6.90
2022-08-24T13:15:31.183Z,7.03
2022-08-24T13:18:08.846Z,8.13
2022-08-24T13:20:38.747Z,8.45
2022-08-24T13:23:11.500Z,6.88
2022-08-24T13:25:47.933Z,7.32
2022-08-24T13:28:21.135Z,6.40
2022-08-24T13:31:33.741Z,7.88
2022-08-24T13:34:06.629Z,6.97
2022-08-24T13:37:03.262Z,7.50
2022-08-24T13:39:52.749Z,6.95
2022-08-24T13:43:02.947Z,8.60
2022-08-24T13:46:16.690Z,6.72
2022-08-24T13:49:04.064Z,7.53
2022-08-24T13:51:50.092Z,7.88
2022-08-24T13:55:00.095Z,7.20
2022-08-24T13:57:52.180Z,8.30
2022-08-24T14:00:44.099Z,7.57
2022-08-24T14:03:24.346Z,7.10
2022-08-24T14:06:13.695Z,7.30
2022-08-24T14:09:15.793Z,7.10
2022-08-24T14:12:21.271Z,7.40
2022-08-24T14:15:23.906Z,7.25
2022-08-24T14:18:28.382Z,6.72
2022-08-24T14:21:09.213Z,6.95
2022-08-24T14:24:05.578Z,7.32
2022-08-24T14:26:38.729Z,7.95
2022-08-24T14:29:17.967Z,7.00
2022-08-24T14:32:08.494Z,6.95
2022-08-24T14:35:05.351Z,7.25
2022-08-24T14:37:56.140Z,7.10
2022-08-24T14:40:52.947Z,6.47
2022-08-24T14:43:42.339Z,6.93
2022-08-24T14:46:33.714Z,7.53
2022-08-24T14:49:21.527Z,6.22
2022-08-24T14:52:30.025Z,6.50
2022-08-24T14:55:18.275Z,8.20
2022-08-24T14:58:07.530Z,7.93
2022-08-24T15:01:17.434Z,8.45
2022-08-24T15:04:30.759Z,7.32
2022-08-24T15:07:25.478Z,7.07
2022-08-24T15:09:53.984Z,7.07
2022-08-24T15:12:47.878Z,7.15
2022-08-24T15:15:50.867Z,6.88
2022-08-24T15:18:17.721Z,6.97
2022-08-24T15:21:28.178Z,7.13
2022-08-24T15:24:15.636Z,7.18
2022-08-24T15:27:25.523Z,6.90
2022-08-24T15:29:57.492Z,6.25
2022-08-24T15:32:41.532Z,7.05
2022-08-24T15:35:08.642Z,7.13
2022-08-24T15:37:40.450Z,5.85
2022-08-24T15:40:30.514Z,5.50
2022-08-24T15:43:04.385Z,5.80
2022-08-24T15:45:32.917Z,5.57
2022-08-24T15:48:01.559Z,5.93
2022-08-24T15:50:34.178Z,5.68
2022-08-24T15:53:21.708Z,6.03
2022-08-24T15:55:48.898Z,6.07
2022-08-24T15:58:36.680Z,7.07
2022-08-24T16:01:28.415Z,5.78
2022-08-24T16:04:14.758Z,5.63
2022-08-24T16:06:46.224Z,6.13
2022-08-24T16:09:19.641Z,6.85
2022-08-24T16:12:10.447Z,6.80
2022-08-24T16:14:51.735Z,8.15
2022-08-24T16:17:41.447Z,7.07
2022-08-24T16:20:28.829Z,6.47
2022-08-24T16:23:04.837Z,7.10
2022-08-24T16:25:43.721Z,6.88
2022-08-24T16:28:35.344Z,7.35
2022-08-24T16:31:07.451Z,7.07
2022-08-24T16:33:45.901Z,7.13
2022-08-24T16:36:18.987Z,6.70
2022-08-24T16:38:50.827Z,5.85
2022-08-24T16:41:24.348Z,6.50
2022-08-24T16:43:51.824Z,6.43
2022-08-24T16:46:22.151Z,7.63
2022-08-24T16:48:49.655Z,6.57
2022-08-24T16:51:16.596Z,6.53
2022-08-24T16:53:43.775Z,6.72
2022-08-24T16:56:13.678Z,5.82
2022-08-24T16:58:45.437Z,9.65
2022-08-24T17:01:14.018Z,8.65
2022-08-24T17:03:41.125Z,6.97
2022-08-24T17:06:08.665Z,7.65
2022-08-24T17:08:35.682Z,5.57
2022-08-24T17:11:04.978Z,6.03
2022-08-24T17:13:48.898Z,5.43
2022-08-24T17:16:17.146Z,6.30
2022-08-24T17:18:44.211Z,6.85
2022-08-24T17:21:11.162Z,7.50
2022-08-24T17:23:40.999Z,6.80
2022-08-24T17:26:20.855Z,6.50
2022-08-24T17:28:52.670Z,6.55
2022-08-24T17:31:19.844Z,8.55
2022-08-24T17:33:46.902Z,6.82
2022-08-24T17:36:16.134Z,7.03
2022-08-24T17:38:50.335Z,7.32
2022-08-24T17:41:20.270Z,6.68
2022-08-24T17:43:48.508Z,5.68
2022-08-24T17:46:15.771Z,7.57
2022-08-24T17:48:44.587Z,6.75
2022-08-24T17:51:11.866Z,6.93
2022-08-24T17:53:38.798Z,6.30
2022-08-24T17:56:08.238Z,7.32
2022-08-24T17:58:55.657Z,6.20
2022-08-24T18:01:24.279Z,6.70
2022-08-24T18:03:51.664Z,7.05
2022-08-24T18:06:22.519Z,7.25
2022-08-24T18:08:50.984Z,7.25
2022-08-24T18:11:21.563Z,6.45
2022-08-24T18:13:51.276Z,6.38
2022-08-24T18:16:21.709Z,6.57
2022-08-24T18:18:51.918Z,6.68
2022-08-24T18:21:20.244Z,7.43
2022-08-24T18:23:48.946Z,6.43
2022-08-24T18:26:25.964Z,6.60
2022-08-24T18:29:00.267Z,6.40
2022-08-24T18:31:29.465Z,7.40
2022-08-24T18:33:56.417Z,6.97
2022-08-24T18:36:23.389Z,7.20
2022-08-24T18:38:50.371Z,7.47
2022-08-24T18:41:17.699Z,7.53
2022-08-24T18:43:45.010Z,6.55
2022-08-24T18:46:12.429Z,6.32
2022-08-24T18:48:39.478Z,7.32
2022-08-24T18:51:06.707Z,6.97
2022-08-24T18:53:35.529Z,6.63
2022-08-24T18:56:10.460Z,5.70
2022-08-24T18:58:39.306Z,5.35
2022-08-24T19:01:07.070Z,5.68
2022-08-24T19:03:34.477Z,5.93
2022-08-24T19:06:01.523Z,5.07
2022-08-24T19:08:28.519Z,5.22
2022-08-24T19:10:56.287Z,5.32
2022-08-24T19:13:23.471Z,4.80
2022-08-24T19:15:51.099Z,4.60
2022-08-24T19:18:21.351Z,5.20
2022-08-24T19:20:55.138Z,5.90
2022-08-24T19:23:29.039Z,4.57
2022-08-24T19:25:57.012Z,4.13
2022-08-24T19:28:24.841Z,4.40
2022-08-24T19:31:00.030Z,3.70
2022-08-24T19:33:32.335Z,3.75
2022-08-24T19:36:00.013Z,3.90
2022-08-24T19:38:27.028Z,3.83
2022-08-24T19:40:57.166Z,3.60
2022-08-24T19:43:27.216Z,3.60
2022-08-24T19:46:02.501Z,3.40
2022-08-24T19:48:35.060Z,3.30
2022-08-24T19:51:06.247Z,3.30
2022-08-24T19:53:36.588Z,3.42
2022-08-24T19:56:05.582Z,2.95
2022-08-24T19:58:58.747Z,3.38
2022-08-24T20:01:34.819Z,2.58
2022-08-24T20:04:06.212Z,2.88
2022-08-24T20:06:35.985Z,3.25
2022-08-24T20:09:04.822Z,3.00
2022-08-24T20:11:31.842Z,3.35
2022-08-24T20:13:58.818Z,3.25
2022-08-24T20:16:32.075Z,2.45
2022-08-24T20:19:00.721Z,2.72
2022-08-24T20:21:30.187Z,2.65
2022-08-24T20:24:00.636Z,2.90
2022-08-24T20:26:31.102Z,2.53
2022-08-24T20:28:59.113Z,2.60
2022-08-24T20:31:28.570Z,2.65
2022-08-24T20:33:57.414Z,2.40
2022-08-24T20:36:34.297Z,2.65
2022-08-24T20:39:02.819Z,2.20
2022-08-24T20:41:30.090Z,2.58
2022-08-24T20:43:57.855Z,2.13
2022-08-24T20:46:26.872Z,2.90
2022-08-24T20:48:56.089Z,2.55
2022-08-24T20:51:25.651Z,2.40
2022-08-24T20:53:52.970Z,2.50
2022-08-24T20:56:31.098Z,2.45
2022-08-24T20:59:02.333Z,2.47
2022-08-24T21:01:31.169Z,2.00
2022-08-24T21:04:02.771Z,2.65
2022-08-24T21:06:32.976Z,2.70
2022-08-24T21:09:00.750Z,2.38
2022-08-24T21:11:28.025Z,2.70
2022-08-24T21:13:54.986Z,3.22
2022-08-24T21:16:22.023Z,3.03
2022-08-24T21:18:49.053Z,2.50
2022-08-24T21:21:17.065Z,3.28
2022-08-24T21:23:44.449Z,2.47
2022-08-24T21:26:14.547Z,3.00
2022-08-24T21:28:43.616Z,2.03
2022-08-24T21:31:10.645Z,2.65
2022-08-24T21:33:56.603Z,3.00
2022-08-24T21:36:25.577Z,2.60
2022-08-24T21:38:54.758Z,3.10
2022-08-24T21:41:22.250Z,2.88
2022-08-24T21:43:49.810Z,2.58
2022-08-24T21:46:17.229Z,3.28
2022-08-24T21:48:44.212Z,2.70
2022-08-24T21:51:11.149Z,2.92
2022-08-24T21:53:38.082Z,3.03
2022-08-24T21:56:05.193Z,3.20
2022-08-24T21:58:32.247Z,3.00
2022-08-24T22:00:59.983Z,3.38
2022-08-24T22:03:31.428Z,3.05
2022-08-24T22:06:08.029Z,2.92
2022-08-24T22:08:36.770Z,3.38
2022-08-24T22:37:22.229Z,3.30
2022-08-24T22:39:49.302Z,2.72
2022-08-24T22:42:16.355Z,2.75
2022-08-24T22:44:43.899Z,2.50
2022-08-24T22:47:13.326Z,2.65
2022-08-24T22:49:43.927Z,2.70
2022-08-24T22:52:13.025Z,2.83
2022-08-24T22:54:41.256Z,2.63
2022-08-24T22:57:09.493Z,2.95
2022-08-24T22:59:40.240Z,2.60
2022-08-24T23:02:14.827Z,2.42
2022-08-24T23:04:47.103Z,3.03
2022-08-24T23:07:14.464Z,2.78
2022-08-24T23:09:44.996Z,3.95
2022-08-24T23:12:17.989Z,3.20
2022-08-24T23:14:45.047Z,2.28
2022-08-24T23:17:12.830Z,2.45
2022-08-24T23:19:58.111Z,2.60
2022-08-24T23:22:25.742Z,2.30
2022-08-24T23:24:53.110Z,2.42
2022-08-24T23:27:20.959Z,2.83
2022-08-24T23:29:48.598Z,2.30
2022-08-24T23:32:18.309Z,2.47
2022-08-24T23:34:49.018Z,2.42
2022-08-24T23:37:17.775Z,2.80
2022-08-24T23:39:45.106Z,2.47
2022-08-24T23:42:12.307Z,2.60
2022-08-24T23:44:39.661Z,2.53
2022-08-24T23:47:07.115Z,2.25
2022-08-24T23:49:34.631Z,2.38
2022-08-24T23:52:01.806Z,2.20
2022-08-24T23:54:29.221Z,2.40
2022-08-24T23:56:57.524Z,2.33
2022-08-24T23:59:29.547Z,2.78
